createdAt,value
2023-04-16T00:00:17.423Z,3.30
2023-04-16T00:02:45.643Z,3.47
2023-04-16T00:05:15.783Z,3.93
2023-04-16T00:07:44.148Z,3.27
2023-04-16T00:10:12.196Z,3.00
2023-04-16T00:12:40.520Z,4.13
2023-04-16T00:15:10.932Z,5.30
2023-04-16T00:17:38.950Z,4.00
2023-04-16T00:20:08.872Z,5.30
2023-04-16T00:22:36.981Z,3.67
2023-04-16T00:25:05.521Z,5.70
2023-04-16T00:27:33.604Z,4.83
2023-04-16T00:30:01.643Z,3.53
2023-04-16T00:32:31.586Z,6.00
2023-04-16T00:34:59.802Z,7.10
2023-04-16T00:37:27.705Z,5.83
2023-04-16T00:39:55.828Z,6.20
2023-04-16T00:42:23.716Z,6.10
2023-04-16T00:44:51.637Z,9.13
2023-04-16T00:47:22.592Z,5.50
2023-04-16T00:49:52.020Z,7.60
2023-04-16T00:52:20.016Z,6.03
2023-04-16T00:54:48.165Z,5.00
2023-04-16T00:57:16.421Z,7.40
2023-04-16T00:59:44.377Z,7.00
2023-04-16T01:02:12.726Z,5.93
2023-04-16T01:04:40.794Z,7.03
2023-04-16T01:07:10.280Z,5.00
2023-04-16T01:09:38.308Z,5.97
2023-04-16T01:12:06.390Z,5.23
2023-04-16T01:14:36.571Z,4.77
2023-04-16T01:17:04.615Z,5.30
2023-04-16T01:19:32.844Z,5.97
2023-04-16T01:22:02.209Z,4.87
2023-04-16T01:24:30.135Z,4.87
2023-04-16T01:26:59.848Z,2.73
2023-04-16T01:29:27.961Z,3.90
2023-04-16T01:31:55.883Z,6.30
2023-04-16T01:34:23.828Z,3.80
2023-04-16T01:36:51.932Z,2.80
2023-04-16T01:39:21.264Z,3.60
2023-04-16T01:41:49.470Z,2.93
2023-04-16T01:44:17.414Z,2.83
2023-04-16T01:46:46.269Z,3.50
2023-04-16T01:49:14.364Z,4.80
2023-04-16T01:51:42.272Z,2.83
2023-04-16T01:54:10.791Z,3.93
2023-04-16T01:56:40.122Z,3.80
2023-04-16T01:59:08.438Z,4.97
2023-04-16T02:01:36.618Z,5.60
2023-04-16T02:04:05.495Z,4.27
2023-04-16T02:06:33.419Z,6.00
2023-04-16T02:09:01.343Z,4.73
2023-04-16T02:11:29.377Z,3.80
2023-04-16T02:13:58.660Z,4.93
2023-04-16T02:16:27.162Z,5.37
2023-04-16T02:18:55.075Z,5.70
2023-04-16T02:21:23.045Z,7.10
2023-04-16T02:23:52.113Z,5.23
2023-04-16T02:26:20.122Z,6.00
2023-04-16T02:28:48.015Z,7.50
2023-04-16T02:31:19.788Z,7.90
2023-04-16T02:33:47.924Z,4.73
2023-04-16T02:36:15.777Z,5.73
2023-04-16T02:38:43.910Z,7.77
2023-04-16T02:41:12.713Z,5.20
2023-04-16T02:43:40.923Z,6.67
2023-04-16T02:46:09.314Z,6.27
2023-04-16T02:48:38.856Z,6.47
2023-04-16T02:51:07.231Z,6.47
2023-04-16T02:53:35.391Z,7.30
2023-04-16T02:56:03.479Z,7.33
2023-04-16T02:58:31.494Z,5.00
2023-04-16T03:00:59.601Z,7.23
2023-04-16T03:03:27.591Z,6.13
2023-04-16T03:05:56.837Z,4.87
2023-04-16T03:08:25.024Z,6.00
2023-04-16T03:10:53.110Z,5.47
2023-04-16T03:13:21.549Z,5.83
2023-04-16T03:15:50.670Z,3.90
2023-04-16T03:18:18.776Z,5.57
2023-04-16T03:20:46.672Z,5.07
2023-04-16T03:23:16.269Z,4.70
2023-04-16T03:25:46.640Z,4.53
2023-04-16T03:28:14.924Z,5.53
2023-04-16T03:30:43.354Z,3.27
2023-04-16T03:33:11.706Z,4.10
2023-04-16T03:35:39.575Z,4.73
2023-04-16T03:38:07.614Z,5.03
2023-04-16T03:40:36.866Z,3.77
2023-04-16T03:43:04.775Z,4.80
2023-04-16T03:45:32.844Z,5.07
2023-04-16T03:48:01.073Z,4.20
2023-04-16T03:50:28.988Z,3.53
2023-04-16T03:52:56.867Z,5.00
2023-04-16T03:55:24.959Z,5.33
2023-04-16T03:57:54.218Z,4.57
2023-04-16T04:00:22.216Z,4.40
2023-04-16T04:02:50.374Z,4.13
2023-04-16T04:05:18.373Z,7.03
2023-04-16T04:07:46.515Z,3.37
2023-04-16T04:10:14.679Z,4.10
2023-04-16T04:12:42.572Z,4.20
2023-04-16T04:15:13.037Z,6.37
2023-04-16T04:17:40.969Z,5.23
2023-04-16T04:20:09.804Z,5.83
2023-04-16T04:22:37.867Z,4.17
2023-04-16T04:25:06.420Z,4.13
2023-04-16T04:27:34.437Z,5.50
2023-04-16T04:30:02.345Z,4.43
2023-04-16T04:32:32.086Z,6.23
2023-04-16T04:35:01.111Z,5.87
2023-04-16T04:37:29.103Z,5.20
2023-04-16T04:39:57.163Z,4.30
2023-04-16T04:42:26.252Z,4.40
2023-04-16T04:44:54.329Z,3.97
2023-04-16T04:47:22.218Z,5.60
2023-04-16T04:49:51.480Z,5.03
2023-04-16T04:52:20.862Z,5.00
2023-04-16T04:54:48.794Z,6.60
2023-04-16T04:57:16.878Z,5.37
2023-04-16T04:59:44.873Z,5.77
2023-04-16T05:02:12.974Z,4.00
2023-04-16T05:04:40.982Z,5.90
2023-04-16T05:07:10.577Z,4.60
2023-04-16T05:09:38.620Z,5.47
2023-04-16T05:12:06.920Z,6.13
2023-04-16T05:14:36.140Z,4.73
2023-04-16T05:17:04.188Z,4.37
2023-04-16T05:19:34.233Z,6.87
2023-04-16T05:22:02.641Z,4.30
2023-04-16T05:24:32.142Z,4.80
2023-04-16T05:27:00.032Z,4.70
2023-04-16T05:29:28.347Z,5.00
2023-04-16T05:31:56.436Z,6.50
2023-04-16T05:34:24.447Z,6.40
2023-04-16T05:36:52.444Z,5.57
2023-04-16T05:39:20.535Z,5.07
2023-04-16T05:41:49.834Z,4.30
2023-04-16T05:44:17.891Z,4.20
2023-04-16T05:46:45.967Z,4.17
2023-04-16T05:49:13.990Z,3.77
2023-04-16T05:51:41.951Z,3.40
2023-04-16T05:54:10.181Z,3.77
2023-04-16T05:56:38.304Z,3.97
2023-04-16T05:59:08.421Z,3.10
2023-04-16T06:01:36.784Z,2.80
2023-04-16T06:04:05.005Z,3.20
2023-04-16T06:06:32.974Z,2.00
2023-04-16T06:09:00.892Z,2.30
2023-04-16T06:11:30.745Z,1.93
2023-04-16T06:13:58.709Z,1.63
2023-04-16T06:16:28.005Z,1.90
2023-04-16T06:18:56.228Z,2.30
2023-04-16T06:21:24.447Z,1.50
2023-04-16T06:23:52.314Z,2.23
2023-04-16T06:26:20.873Z,1.30
2023-04-16T06:28:48.992Z,1.73
2023-04-16T06:31:17.152Z,2.47
2023-04-16T06:33:46.446Z,1.37
2023-04-16T06:36:14.346Z,1.33
2023-04-16T06:38:42.506Z,1.23
2023-04-16T06:41:10.602Z,1.00
2023-04-16T06:43:38.792Z,0.97
2023-04-16T06:46:06.848Z,1.83
2023-04-16T06:48:34.769Z,0.80
2023-04-16T06:51:04.516Z,1.30
2023-04-16T06:53:32.988Z,2.27
2023-04-16T06:56:01.064Z,1.17
2023-04-16T06:58:29.059Z,1.03
2023-04-16T07:00:57.138Z,1.47
2023-04-16T07:03:25.168Z,0.53
2023-04-16T07:05:53.317Z,1.33
2023-04-16T07:08:22.564Z,0.90
2023-04-16T07:10:50.826Z,1.00
2023-04-16T07:13:19.529Z,0.70
2023-04-16T07:15:47.444Z,1.00
2023-04-16T07:18:16.164Z,0.67
2023-04-16T07:20:44.153Z,0.60
2023-04-16T07:23:12.152Z,1.03
2023-04-16T07:25:42.374Z,0.80
2023-04-16T07:28:10.743Z,0.90
2023-04-16T07:30:38.753Z,1.00
2023-04-16T07:33:06.891Z,1.63
2023-04-16T07:35:34.972Z,0.87
2023-04-16T07:38:02.883Z,1.50
2023-04-16T07:40:31.347Z,0.70
2023-04-16T07:43:01.110Z,1.10
2023-04-16T07:45:29.068Z,1.60
2023-04-16T07:47:57.188Z,1.17
2023-04-16T07:50:25.662Z,0.97
2023-04-16T07:52:54.720Z,2.03
2023-04-16T07:55:23.402Z,0.97
2023-04-16T07:57:51.320Z,0.83
2023-04-16T08:00:21.014Z,1.00
2023-04-16T08:02:49.641Z,1.53
2023-04-16T08:05:17.769Z,2.70
2023-04-16T08:07:45.819Z,1.70
2023-04-16T08:10:14.050Z,0.80
2023-04-16T08:12:42.043Z,1.03
2023-04-16T08:15:10.963Z,0.70
2023-04-16T08:17:40.273Z,1.07
2023-04-16T08:20:09.567Z,0.63
2023-04-16T08:22:38.601Z,0.90
2023-04-16T08:25:07.650Z,0.70
2023-04-16T08:27:35.668Z,0.67
2023-04-16T08:30:03.920Z,1.63
2023-04-16T08:32:31.857Z,0.70
2023-04-16T08:35:01.513Z,1.57
2023-04-16T08:37:29.471Z,0.60
2023-04-16T08:39:57.529Z,0.83
2023-04-16T08:42:32.138Z,1.37
2023-04-16T08:45:08.687Z,0.87
2023-04-16T08:47:38.017Z,1.03
2023-04-16T08:50:09.845Z,0.70
2023-04-16T08:52:41.008Z,0.70
2023-04-16T08:55:14.367Z,1.13
2023-04-16T08:57:48.741Z,0.60
2023-04-16T09:00:17.580Z,0.70
2023-04-16T09:02:48.007Z,0.70
2023-04-16T09:05:18.981Z,0.70
2023-04-16T09:07:47.751Z,1.43
2023-04-16T09:10:16.635Z,0.60
2023-04-16T09:12:45.445Z,0.60
2023-04-16T09:15:14.590Z,0.50
2023-04-16T09:17:43.482Z,0.77
2023-04-16T09:20:12.547Z,0.80
2023-04-16T09:22:42.215Z,1.13
2023-04-16T09:25:12.630Z,0.67
2023-04-16T09:27:41.145Z,1.20
2023-04-16T09:30:23.260Z,0.60
2023-04-16T09:32:52.210Z,0.80
2023-04-16T09:35:20.914Z,0.70
2023-04-16T09:38:08.287Z,0.60
2023-04-16T09:40:36.359Z,0.70
2023-04-16T09:43:11.903Z,0.90
2023-04-16T09:45:51.135Z,0.90
2023-04-16T09:48:29.601Z,0.80
2023-04-16T09:50:57.896Z,0.90
2023-04-16T09:53:28.037Z,1.50
2023-04-16T09:55:58.243Z,2.33
2023-04-16T09:58:26.335Z,1.10
2023-04-16T10:00:57.658Z,0.70
2023-04-16T10:03:31.705Z,1.13
2023-04-16T10:06:02.418Z,0.67
2023-04-16T10:08:31.863Z,1.03
2023-04-16T10:11:00.469Z,1.50
2023-04-16T10:13:30.968Z,1.43
2023-04-16T10:15:59.148Z,1.30
2023-04-16T10:18:27.142Z,2.90
2023-04-16T10:20:55.313Z,1.10
2023-04-16T10:23:24.144Z,1.63
2023-04-16T10:25:57.491Z,0.95
2023-04-16T10:28:27.333Z,1.00
2023-04-16T10:30:58.030Z,0.70
2023-04-16T10:33:29.900Z,0.93
2023-04-16T10:36:09.634Z,1.23
2023-04-16T10:38:41.859Z,1.00
2023-04-16T10:41:11.509Z,0.93
2023-04-16T10:43:44.587Z,1.00
2023-04-16T10:46:23.285Z,0.63
2023-04-16T10:48:53.607Z,2.90
2023-04-16T10:51:27.761Z,0.60
2023-04-16T10:53:57.164Z,1.13
2023-04-16T10:56:27.947Z,2.23
2023-04-16T10:58:57.306Z,4.60
2023-04-16T11:01:32.465Z,1.23
2023-04-16T11:04:03.154Z,0.60
2023-04-16T11:06:32.520Z,0.90
2023-04-16T11:09:00.433Z,0.70
2023-04-16T11:11:39.403Z,0.98
2023-04-16T11:14:10.885Z,0.80
2023-04-16T11:16:42.185Z,0.70
2023-04-16T11:19:17.758Z,0.70
2023-04-16T11:21:46.648Z,0.70
2023-04-16T11:24:14.708Z,0.80
2023-04-16T11:26:49.179Z,0.60
2023-04-16T11:29:17.467Z,1.17
2023-04-16T11:31:51.772Z,1.20
2023-04-16T11:34:20.347Z,1.17
2023-04-16T11:36:49.538Z,1.93
2023-04-16T11:39:17.516Z,1.43
2023-04-16T11:41:50.189Z,0.90
2023-04-16T11:44:22.573Z,1.10
2023-04-16T11:46:50.935Z,1.10
2023-04-16T11:49:19.281Z,0.80
2023-04-16T11:51:48.760Z,1.53
2023-04-16T11:54:21.501Z,1.00
2023-04-16T11:56:53.351Z,0.60
2023-04-16T11:59:23.432Z,0.80
2023-04-16T12:01:53.117Z,1.63
2023-04-16T12:04:22.681Z,0.87
2023-04-16T12:07:06.409Z,0.80
2023-04-16T12:09:37.165Z,0.90
2023-04-16T12:12:27.356Z,0.67
2023-04-16T12:14:57.101Z,1.00
2023-04-16T12:17:25.231Z,0.90
2023-04-16T12:19:56.561Z,1.70
2023-04-16T12:22:31.563Z,0.70
2023-04-16T12:25:04.150Z,1.43
2023-04-16T12:27:53.026Z,1.00
2023-04-16T12:30:24.447Z,1.10
2023-04-16T12:32:56.111Z,1.20
2023-04-16T12:35:32.762Z,1.13
2023-04-16T12:38:01.056Z,1.57
2023-04-16T12:40:29.112Z,1.00
2023-04-16T12:42:58.746Z,0.90
2023-04-16T12:45:26.915Z,3.13
2023-04-16T12:47:58.070Z,1.00
2023-04-16T12:50:30.013Z,1.10
2023-04-16T12:52:58.464Z,1.03
2023-04-16T12:55:26.542Z,1.47
2023-04-16T12:57:56.101Z,1.10
2023-04-16T13:00:25.894Z,1.00
2023-04-16T13:02:55.089Z,1.20
2023-04-16T13:05:23.150Z,1.10
2023-04-16T13:07:51.070Z,1.00
2023-04-16T13:10:19.413Z,1.03
2023-04-16T13:12:47.674Z,1.53
2023-04-16T13:15:15.905Z,1.27
2023-04-16T13:17:45.325Z,0.90
2023-04-16T13:20:13.434Z,0.90
2023-04-16T13:22:41.658Z,3.00
2023-04-16T13:25:10.979Z,2.07
2023-04-16T13:27:39.068Z,0.70
2023-04-16T13:30:08.339Z,1.97
2023-04-16T13:32:36.377Z,1.37
2023-04-16T13:35:06.747Z,0.90
2023-04-16T13:37:35.563Z,1.17
2023-04-16T13:40:03.636Z,1.13
2023-04-16T13:42:32.641Z,1.27
2023-04-16T13:45:01.477Z,1.00
2023-04-16T13:47:29.719Z,0.80
2023-04-16T13:49:57.765Z,2.10
2023-04-16T13:52:27.388Z,1.17
2023-04-16T13:54:55.307Z,1.53
2023-04-16T13:57:23.398Z,1.03
2023-04-16T13:59:51.478Z,1.30
2023-04-16T14:02:19.682Z,1.20
2023-04-16T14:04:47.684Z,2.50
2023-04-16T14:07:16.290Z,0.80
2023-04-16T14:09:45.818Z,0.80
2023-04-16T14:12:13.746Z,1.70
2023-04-16T14:14:42.332Z,1.13
2023-04-16T14:17:10.706Z,1.00
2023-04-16T14:19:38.595Z,1.23
2023-04-16T14:22:08.790Z,0.80
2023-04-16T14:24:37.678Z,3.57
2023-04-16T14:27:07.136Z,1.03
2023-04-16T14:29:36.456Z,0.90
2023-04-16T14:32:04.640Z,0.80
2023-04-16T14:34:32.890Z,1.30
2023-04-16T14:37:01.322Z,2.60
2023-04-16T14:39:29.414Z,1.40
2023-04-16T14:41:57.373Z,0.80
2023-04-16T14:44:26.789Z,1.37
2023-04-16T14:46:55.264Z,1.00
2023-04-16T14:49:23.283Z,1.17
2023-04-16T14:51:52.301Z,0.80
2023-04-16T14:54:20.494Z,1.70
2023-04-16T14:56:48.527Z,0.80
2023-04-16T14:59:16.675Z,1.50
2023-04-16T15:01:46.285Z,1.00
2023-04-16T15:04:14.615Z,0.87
2023-04-16T15:06:42.793Z,1.50
2023-04-16T15:09:10.915Z,0.90
2023-04-16T15:11:39.092Z,1.00
2023-04-16T15:14:07.270Z,1.13
2023-04-16T15:16:35.639Z,0.73
2023-04-16T15:19:05.425Z,1.10
2023-04-16T15:21:33.360Z,1.00
2023-04-16T15:24:01.288Z,0.90
2023-04-16T15:26:29.603Z,2.30
2023-04-16T15:28:57.666Z,1.27
2023-04-16T15:31:25.854Z,1.10
2023-04-16T15:33:54.525Z,1.67
2023-04-16T15:36:23.945Z,1.10
2023-04-16T15:38:51.849Z,3.87
2023-04-16T15:41:20.146Z,1.20
2023-04-16T15:43:48.031Z,1.80
2023-04-16T15:46:16.398Z,1.33
2023-04-16T15:48:44.567Z,2.43
2023-04-16T15:51:12.492Z,0.80
2023-04-16T15:53:42.212Z,2.03
2023-04-16T15:56:10.282Z,1.10
2023-04-16T15:58:38.517Z,1.43
2023-04-16T16:01:06.446Z,1.30
2023-04-16T16:03:36.137Z,1.33
2023-04-16T16:06:04.919Z,2.40
2023-04-16T16:08:35.588Z,1.70
2023-04-16T16:11:05.498Z,0.97
2023-04-16T16:13:33.412Z,1.40
2023-04-16T16:16:02.013Z,1.33
2023-04-16T16:18:30.259Z,1.23
2023-04-16T16:20:58.744Z,1.37
2023-04-16T16:23:27.209Z,2.10
2023-04-16T16:25:55.340Z,1.33
2023-04-16T16:28:25.070Z,1.10
2023-04-16T16:30:54.871Z,1.40
2023-04-16T16:33:23.261Z,1.17
2023-04-16T16:35:51.374Z,2.07
2023-04-16T16:38:19.807Z,1.70
2023-04-16T16:40:47.929Z,0.93
2023-04-16T16:43:16.700Z,1.07
2023-04-16T16:45:46.433Z,2.10
2023-04-16T16:48:14.519Z,1.33
2023-04-16T16:50:42.507Z,1.50
2023-04-16T16:53:10.743Z,2.00
2023-04-16T16:55:39.130Z,1.00
2023-04-16T16:58:07.764Z,1.53
2023-04-16T17:00:36.045Z,7.50
2023-04-16T17:03:05.689Z,0.90
2023-04-16T17:05:33.717Z,1.00
2023-04-16T17:08:01.755Z,1.20
2023-04-16T17:10:30.316Z,1.10
2023-04-16T17:12:58.321Z,2.30
2023-04-16T17:15:26.355Z,0.97
2023-04-16T17:17:55.256Z,1.17
2023-04-16T17:20:24.593Z,1.20
2023-04-16T17:22:52.586Z,4.97
2023-04-16T17:25:20.755Z,2.50
2023-04-16T17:27:49.027Z,2.30
2023-04-16T17:30:17.176Z,2.00
2023-04-16T17:32:45.518Z,1.80
2023-04-16T17:35:14.086Z,3.90
2023-04-16T17:37:43.358Z,2.00
2023-04-16T17:40:13.087Z,1.50
2023-04-16T17:42:41.332Z,2.63
2023-04-16T17:45:10.125Z,1.10
2023-04-16T17:47:38.855Z,1.30
2023-04-16T17:50:08.172Z,1.57
2023-04-16T17:52:37.543Z,1.37
2023-04-16T17:55:08.058Z,1.60
2023-04-16T17:57:36.610Z,1.40
2023-04-16T18:00:06.380Z,1.87
2023-04-16T18:02:34.643Z,1.67
2023-04-16T18:05:02.592Z,1.73
2023-04-16T18:07:30.458Z,1.03
2023-04-16T18:09:58.492Z,1.70
2023-04-16T18:12:27.812Z,1.37
2023-04-16T18:14:55.691Z,1.73
2023-04-16T18:17:24.098Z,1.60
2023-04-16T18:19:51.987Z,2.10
2023-04-16T18:22:19.891Z,2.33
2023-04-16T18:24:48.131Z,2.80
2023-04-16T18:27:16.494Z,1.40
2023-04-16T18:29:45.731Z,2.70
2023-04-16T18:32:13.850Z,1.67
2023-04-16T18:34:41.745Z,3.13
2023-04-16T18:37:09.999Z,1.57
2023-04-16T18:39:38.017Z,2.13
2023-04-16T18:42:06.646Z,1.23
2023-04-16T18:44:35.019Z,2.07
2023-04-16T18:47:04.300Z,1.47
2023-04-16T18:49:32.401Z,1.37
2023-04-16T18:52:00.432Z,1.73
2023-04-16T18:54:28.552Z,2.10
2023-04-16T18:56:57.405Z,4.13
2023-04-16T18:59:27.113Z,2.67
2023-04-16T19:01:55.120Z,2.03
2023-04-16T19:04:24.620Z,3.67
2023-04-16T19:06:52.656Z,1.73
2023-04-16T19:09:20.986Z,1.33
2023-04-16T19:11:50.513Z,4.43
2023-04-16T19:14:18.653Z,2.20
2023-04-16T19:16:47.353Z,2.00
2023-04-16T19:19:15.456Z,2.07
2023-04-16T19:21:44.941Z,1.67
2023-04-16T19:24:12.968Z,1.30
2023-04-16T19:26:41.187Z,1.20
2023-04-16T19:29:09.177Z,3.00
2023-04-16T19:31:37.387Z,1.57
2023-04-16T19:34:05.626Z,1.50
2023-04-16T19:36:33.668Z,2.10
2023-04-16T19:39:04.016Z,1.87
2023-04-16T19:41:31.898Z,2.80
2023-04-16T19:44:00.026Z,1.90
2023-04-16T19:46:27.923Z,1.90
2023-04-16T19:48:56.798Z,1.20
2023-04-16T19:51:24.858Z,2.20
2023-04-16T19:53:53.683Z,2.23
2023-04-16T19:56:23.123Z,1.50
2023-04-16T19:58:51.238Z,3.17
2023-04-16T20:01:19.168Z,3.00
2023-04-16T20:03:47.310Z,1.90
2023-04-16T20:06:17.337Z,2.30
2023-04-16T20:08:45.593Z,2.50
2023-04-16T20:11:13.801Z,2.37
2023-04-16T20:13:43.227Z,2.10
2023-04-16T20:16:13.531Z,4.87
2023-04-16T20:18:42.480Z,2.23
2023-04-16T20:21:11.219Z,1.80
2023-04-16T20:23:39.331Z,2.40
2023-04-16T20:26:07.502Z,12.13
2023-04-16T20:28:36.218Z,2.97
2023-04-16T20:31:05.566Z,2.00
2023-04-16T20:33:33.492Z,2.40
2023-04-16T20:36:01.536Z,2.00
2023-04-16T20:38:32.209Z,2.10
2023-04-16T20:41:10.246Z,2.63
2023-04-16T20:43:41.127Z,2.30
2023-04-16T20:46:11.112Z,3.37
2023-04-16T20:48:39.668Z,1.57
2023-04-16T20:51:09.391Z,2.57
2023-04-16T20:53:38.254Z,4.70
2023-04-16T20:56:06.779Z,2.20
2023-04-16T20:58:34.770Z,2.03
2023-04-16T21:01:02.918Z,2.20
2023-04-16T21:03:32.266Z,2.10
2023-04-16T21:06:01.865Z,5.50
2023-04-16T21:08:29.925Z,4.80
2023-04-16T21:10:58.095Z,2.33
2023-04-16T21:13:26.106Z,2.70
2023-04-16T21:15:54.366Z,2.50
2023-04-16T21:18:22.479Z,2.83
2023-04-16T21:20:51.747Z,2.10
2023-04-16T21:23:19.772Z,3.43
2023-04-16T21:25:47.631Z,2.07
2023-04-16T21:28:15.504Z,2.93
2023-04-16T21:30:43.777Z,2.63
2023-04-16T21:33:12.749Z,3.53
2023-04-16T21:35:40.647Z,2.13
2023-04-16T21:38:10.063Z,3.67
2023-04-16T21:40:37.891Z,3.20
2023-04-16T21:43:06.030Z,3.93
2023-04-16T21:45:33.884Z,2.40
2023-04-16T21:48:01.994Z,2.33
2023-04-16T21:50:29.966Z,1.90
2023-04-16T21:52:58.449Z,2.30
2023-04-16T21:55:27.734Z,2.05
2023-04-16T21:57:55.676Z,1.60
2023-04-16T22:00:23.798Z,2.67
2023-04-16T22:02:56.348Z,2.57
2023-04-16T22:05:25.819Z,2.20
2023-04-16T22:07:54.236Z,3.20
2023-04-16T22:10:22.725Z,1.60
2023-04-16T22:12:54.944Z,2.77
2023-04-16T22:15:22.905Z,1.97
2023-04-16T22:17:51.710Z,2.63
2023-04-16T22:20:21.346Z,2.20
2023-04-16T22:22:49.441Z,1.63
2023-04-16T22:25:17.490Z,2.47
2023-04-16T22:27:45.355Z,2.30
2023-04-16T22:30:15.288Z,2.37
2023-04-16T22:32:43.219Z,1.20
2023-04-16T22:35:12.467Z,1.67
2023-04-16T22:37:40.845Z,1.37
2023-04-16T22:40:10.831Z,1.30
2023-04-16T22:42:38.918Z,2.40
2023-04-16T22:45:08.226Z,1.63
2023-04-16T22:47:37.778Z,1.60
2023-04-16T22:50:06.617Z,1.87
2023-04-16T22:52:34.500Z,1.50
2023-04-16T22:55:02.388Z,1.60
2023-04-16T22:57:30.638Z,1.98
2023-04-16T22:59:58.495Z,2.20
2023-04-16T23:02:26.486Z,1.40
2023-04-16T23:04:56.146Z,1.40
2023-04-16T23:07:24.040Z,1.40
2023-04-16T23:09:52.107Z,1.40
2023-04-16T23:12:19.997Z,1.33
2023-04-16T23:14:48.192Z,1.47
2023-04-16T23:17:16.061Z,1.07
2023-04-16T23:19:43.933Z,3.20
2023-04-16T23:22:13.343Z,2.50
2023-04-16T23:24:41.285Z,2.75
2023-04-16T23:27:09.253Z,2.50
2023-04-16T23:29:37.299Z,1.30
2023-04-16T23:32:05.648Z,1.43
2023-04-16T23:34:33.824Z,1.60
2023-04-16T23:37:02.005Z,2.38
2023-04-16T23:39:31.613Z,1.97
2023-04-16T23:42:03.689Z,1.93
2023-04-16T23:44:34.234Z,2.17
2023-04-16T23:47:03.313Z,2.60
2023-04-16T23:49:31.440Z,1.40
2023-04-16T23:51:59.382Z,2.00
2023-04-16T23:54:30.895Z,1.60
2023-04-16T23:57:00.166Z,1.30
2023-04-16T23:59:28.302Z,1.70
